createdAt,value
2022-11-15T00:00:32.074Z,101018.50
2022-11-15T00:03:40.236Z,101020.44
2022-11-15T00:06:48.909Z,101024.81
2022-11-15T00:09:57.291Z,101017.06
2022-11-15T00:13:07.927Z,101021.31
2022-11-15T00:16:16.286Z,101020.69
2022-11-15T00:19:31.272Z,101022.25
2022-11-15T00:22:34.747Z,101017.75
2022-11-15T00:25:49.264Z,101025.53
2022-11-15T00:28:53.278Z,101020.56
2022-11-15T00:32:08.269Z,101017.44
2022-11-15T00:35:23.271Z,101023.37
2022-11-15T00:38:41.290Z,101009.28
2022-11-15T00:41:56.297Z,101010.97
2022-11-15T00:44:58.123Z,101004.66
2022-11-15T00:48:13.267Z,100998.59
2022-11-15T00:51:22.369Z,100994.09
2022-11-15T00:54:37.361Z,100987.75
2022-11-15T00:57:39.148Z,100989.84
2022-11-15T01:00:54.389Z,100998.59
2022-11-15T01:04:01.051Z,100994.94
2022-11-15T01:07:16.326Z,100991.16
2022-11-15T01:10:25.275Z,100985.56
2022-11-15T01:13:35.370Z,100978.53
2022-11-15T01:16:43.297Z,100978.91
2022-11-15T01:19:51.911Z,100978.19
2022-11-15T01:23:00.306Z,100975.13
2022-11-15T01:26:12.064Z,100969.19
2022-11-15T01:29:26.317Z,100958.38
2022-11-15T01:32:34.327Z,100961.41
2022-11-15T01:35:56.351Z,100961.41
2022-11-15T01:39:11.330Z,100959.72
2022-11-15T01:42:19.960Z,100953.41
2022-11-15T01:45:28.315Z,100953.53
2022-11-15T01:48:37.480Z,100952.69
2022-11-15T01:51:46.379Z,100952.41
2022-11-15T01:55:02.089Z,100956.78
2022-11-15T01:58:13.342Z,100953.03
2022-11-15T02:01:29.521Z,100946.69
2022-11-15T02:04:50.306Z,100952.03
2022-11-15T02:08:07.354Z,100943.28
2022-11-15T02:11:10.571Z,100932.47
2022-11-15T02:14:27.356Z,100938.06
2022-11-15T02:18:05.735Z,100932.47
2022-11-15T02:21:35.414Z,100929.66
2022-11-15T02:25:08.339Z,100928.81
2022-11-15T02:28:40.153Z,100927.12
2022-11-15T02:32:08.400Z,100927.97
2022-11-15T02:35:38.320Z,100916.31
2022-11-15T02:39:08.319Z,100917.53
2022-11-15T02:42:20.275Z,100920.19
2022-11-15T02:45:40.340Z,100915.69
2022-11-15T02:48:44.142Z,100917.41
2022-11-15T02:52:00.318Z,100910.94
2022-11-15T02:55:03.190Z,100914.22
2022-11-15T02:58:38.327Z,100919.81
2022-11-15T03:02:03.350Z,100917.16
2022-11-15T03:05:38.340Z,100922.28
2022-11-15T03:09:06.565Z,100922.50
2022-11-15T03:12:35.379Z,100914.72
2022-11-15T03:15:42.512Z,100924.69
2022-11-15T03:19:04.374Z,100922.25
2022-11-15T03:22:18.369Z,100925.75
2022-11-15T03:25:29.421Z,100913.25
2022-11-15T03:28:44.355Z,100897.47
2022-11-15T03:31:59.697Z,100898.44
2022-11-15T03:35:15.433Z,100896.88
2022-11-15T03:38:26.677Z,100890.41
2022-11-15T03:42:04.500Z,100886.75
2022-11-15T03:45:29.855Z,100889.56
2022-11-15T03:48:53.436Z,100890.28
2022-11-15T03:52:05.378Z,100886.53
2022-11-15T03:55:25.333Z,100884.81
2022-11-15T03:58:27.124Z,100878.53
2022-11-15T04:01:41.480Z,100871.69
2022-11-15T04:04:43.265Z,100856.63
2022-11-15T04:07:58.446Z,100861.97
2022-11-15T04:11:02.474Z,100848.34
2022-11-15T04:14:17.376Z,100850.06
2022-11-15T04:17:19.628Z,100842.91
2022-11-15T04:20:39.348Z,100843.50
2022-11-15T04:23:54.394Z,100854.94
2022-11-15T04:26:56.111Z,100857.00
2022-11-15T04:30:11.350Z,100858.81
2022-11-15T04:33:13.327Z,100854.19
2022-11-15T04:36:35.383Z,100853.22
2022-11-15T04:39:37.199Z,100856.12
2022-11-15T04:42:52.371Z,100843.72
2022-11-15T04:45:54.083Z,100843.94
2022-11-15T04:49:08.390Z,100834.97
2022-11-15T04:52:10.193Z,100840.91
2022-11-15T04:55:30.373Z,100832.53
2022-11-15T04:58:39.053Z,100829.63
2022-11-15T05:01:53.369Z,100825.97
2022-11-15T05:04:55.199Z,100823.31
2022-11-15T05:08:11.413Z,100824.28
2022-11-15T05:11:26.451Z,100822.19
2022-11-15T05:14:34.399Z,100826.56
2022-11-15T05:17:49.420Z,100823.03
2022-11-15T05:21:17.422Z,100825.47
2022-11-15T05:24:19.152Z,100833.50
2022-11-15T05:27:33.378Z,100837.66
2022-11-15T05:30:37.170Z,100816.37
2022-11-15T05:33:51.394Z,100839.31
2022-11-15T05:37:00.445Z,100838.84
2022-11-15T05:40:16.511Z,100839.69
2022-11-15T05:43:18.637Z,100839.31
2022-11-15T05:46:33.386Z,100830.16
2022-11-15T05:49:38.043Z,100828.94
2022-11-15T05:52:53.427Z,100832.47
2022-11-15T05:56:01.417Z,100827.44
2022-11-15T05:59:12.094Z,100819.06
2022-11-15T06:02:26.479Z,100819.41
2022-11-15T06:05:28.536Z,100823.03
2022-11-15T06:08:43.434Z,100824.84
2022-11-15T06:11:45.551Z,100821.47
2022-11-15T06:15:00.481Z,100821.50
2022-11-15T06:18:09.450Z,100816.72
2022-11-15T06:21:18.030Z,100804.84
2022-11-15T06:24:26.402Z,100819.34
2022-11-15T06:27:35.079Z,100823.03
2022-11-15T06:30:43.414Z,100831.94
2022-11-15T06:33:52.060Z,100827.31
2022-11-15T06:37:07.466Z,100828.47
2022-11-15T06:40:23.425Z,100819.22
2022-11-15T06:43:25.295Z,100823.13
2022-11-15T06:46:40.514Z,100825.94
2022-11-15T06:49:48.426Z,100828.81
2022-11-15T06:53:09.471Z,100828.81
2022-11-15T06:56:11.243Z,100830.19
2022-11-15T06:59:26.450Z,100822.25
2022-11-15T07:02:28.236Z,100827.53
2022-11-15T07:05:43.465Z,100819.72
2022-11-15T07:08:55.675Z,100812.75
2022-11-15T07:12:11.451Z,100814.03
2022-11-15T07:15:19.512Z,100817.81
2022-11-15T07:18:28.235Z,100808.12
2022-11-15T07:21:43.824Z,100809.44
2022-11-15T07:24:45.545Z,100808.31
2022-11-15T07:28:04.511Z,100805.41
2022-11-15T07:31:09.138Z,100802.84
2022-11-15T07:34:23.441Z,100807.69
2022-11-15T07:37:31.759Z,100805.06
2022-11-15T07:40:47.427Z,100804.56
2022-11-15T07:43:58.796Z,100815.28
2022-11-15T07:47:07.355Z,100808.88
2022-11-15T07:50:16.459Z,100805.78
2022-11-15T07:53:26.162Z,100797.69
2022-11-15T07:56:41.466Z,100801.34
2022-11-15T07:59:43.954Z,100805.06
2022-11-15T08:03:19.498Z,100804.66
2022-11-15T08:06:28.468Z,100807.44
2022-11-15T08:09:37.112Z,100796.25
2022-11-15T08:12:45.757Z,100791.56
2022-11-15T08:16:00.786Z,100777.50
2022-11-15T08:19:10.591Z,100783.31
2022-11-15T08:22:19.807Z,100780.75
2022-11-15T08:25:31.282Z,100768.78
2022-11-15T08:28:47.527Z,100767.34
2022-11-15T08:31:49.728Z,100759.19
2022-11-15T08:35:04.462Z,100766.06
2022-11-15T08:38:06.461Z,100757.62
2022-11-15T08:41:39.543Z,100767.25
2022-11-15T08:44:44.154Z,100763.97
2022-11-15T08:47:58.538Z,100753.09
2022-11-15T08:51:00.422Z,100756.63
2022-11-15T08:54:15.599Z,100752.00
2022-11-15T08:57:24.544Z,100750.19
2022-11-15T09:00:34.724Z,100742.37
2022-11-15T09:03:43.759Z,100741.69
2022-11-15T09:06:53.471Z,100744.81
2022-11-15T09:10:02.519Z,100739.31
2022-11-15T09:13:11.317Z,100734.25
2022-11-15T09:16:19.526Z,100730.50
2022-11-15T09:19:28.416Z,100724.31
2022-11-15T09:22:38.595Z,100719.41
2022-11-15T09:25:53.538Z,100723.94
2022-11-15T09:28:55.334Z,100710.53
2022-11-15T09:32:13.563Z,100710.63
2022-11-15T09:35:15.559Z,100704.97
2022-11-15T09:38:30.984Z,100705.25
2022-11-15T09:42:05.528Z,100707.25
2022-11-15T09:45:30.770Z,100703.50
2022-11-15T09:48:50.851Z,100709.53
2022-11-15T09:52:06.559Z,100708.56
2022-11-15T09:55:16.431Z,100699.66
2022-11-15T09:58:47.581Z,100698.47
2022-11-15T10:02:37.690Z,100709.16
2022-11-15T10:05:44.719Z,100693.75
2022-11-15T10:09:22.522Z,100696.09
2022-11-15T10:12:34.574Z,100689.50
2022-11-15T10:15:46.362Z,100682.41
2022-11-15T10:19:14.893Z,100675.19
2022-11-15T10:22:47.988Z,100666.59
2022-11-15T10:26:07.164Z,100652.75
2022-11-15T10:29:09.325Z,100654.75
2022-11-15T10:32:27.806Z,100660.94
2022-11-15T10:35:36.247Z,100661.66
2022-11-15T10:39:03.605Z,100653.78
2022-11-15T10:42:24.626Z,100646.44
2022-11-15T10:45:34.686Z,100648.66
2022-11-15T10:48:43.611Z,100639.50
2022-11-15T10:52:09.013Z,100632.31
2022-11-15T10:55:32.695Z,100628.06
2022-11-15T10:58:51.640Z,100634.28
2022-11-15T11:02:00.869Z,100613.41
2022-11-15T11:05:42.095Z,100619.31
2022-11-15T11:08:56.113Z,100602.22
2022-11-15T11:12:13.564Z,100602.06
2022-11-15T11:15:24.990Z,100604.78
2022-11-15T11:18:46.585Z,100604.91
2022-11-15T11:22:24.650Z,100590.94
2022-11-15T11:25:46.577Z,100588.94
2022-11-15T11:29:14.185Z,100589.66
2022-11-15T11:32:54.827Z,100594.16
2022-11-15T11:36:21.644Z,100593.16
2022-11-15T11:39:57.550Z,100582.06
2022-11-15T11:43:31.674Z,100580.50
2022-11-15T11:47:02.632Z,100573.00
2022-11-15T11:50:16.415Z,100575.69
2022-11-15T11:53:39.782Z,100564.50
2022-11-15T11:56:52.665Z,100558.16
2022-11-15T12:00:08.705Z,100555.91
2022-11-15T12:03:42.667Z,100558.19
2022-11-15T12:07:21.214Z,100546.47
2022-11-15T12:10:36.628Z,100540.41
2022-11-15T12:13:55.690Z,100533.78
2022-11-15T12:17:10.591Z,100522.06
2022-11-15T12:20:26.595Z,100527.16
2022-11-15T12:23:51.634Z,100515.88
2022-11-15T12:27:13.657Z,100511.06
2022-11-15T12:30:32.630Z,100508.22
2022-11-15T12:33:38.550Z,100501.87
2022-11-15T12:36:56.655Z,100508.44
2022-11-15T12:40:34.637Z,100509.78
2022-11-15T12:43:51.898Z,100510.75
2022-11-15T12:47:20.657Z,100490.59
2022-11-15T12:50:52.653Z,100495.69
2022-11-15T12:54:21.472Z,100486.78
2022-11-15T12:57:42.978Z,100479.59
2022-11-15T13:00:51.999Z,100479.03
2022-11-15T13:04:20.711Z,100469.00
2022-11-15T13:07:59.263Z,100463.94
2022-11-15T13:11:33.755Z,100478.06
2022-11-15T13:14:48.704Z,100469.03
2022-11-15T13:17:59.594Z,100481.44
2022-11-15T13:21:28.640Z,100476.41
2022-11-15T13:24:39.695Z,100485.09
2022-11-15T13:27:48.621Z,100468.59
2022-11-15T13:31:07.658Z,100468.47
2022-11-15T13:34:50.005Z,100465.09
2022-11-15T13:38:11.744Z,100458.03
2022-11-15T13:41:23.534Z,100452.78
2022-11-15T13:44:40.694Z,100454.72
2022-11-15T13:47:48.689Z,100450.13
2022-11-15T13:51:06.040Z,100451.69
2022-11-15T13:54:35.649Z,100430.75
2022-11-15T13:57:55.685Z,100430.75
2022-11-15T14:01:03.473Z,100417.94
2022-11-15T14:04:23.654Z,100420.37
2022-11-15T14:07:44.501Z,100426.28
2022-11-15T14:11:23.755Z,100424.06
2022-11-15T14:14:38.672Z,100413.44
2022-11-15T14:17:42.451Z,100422.19
2022-11-15T14:21:16.036Z,100418.91
2022-11-15T14:24:20.871Z,100421.47
2022-11-15T14:27:36.734Z,100407.25
2022-11-15T14:30:41.678Z,100400.16
2022-11-15T14:33:56.653Z,100399.06
2022-11-15T14:37:12.699Z,100394.97
2022-11-15T14:40:25.775Z,100386.37
2022-11-15T14:43:33.773Z,100382.56
2022-11-15T14:46:48.687Z,100383.84
2022-11-15T14:49:51.023Z,100383.25
2022-11-15T14:53:05.741Z,100374.12
2022-11-15T14:56:08.304Z,100371.69
2022-11-15T14:59:23.672Z,100373.38
2022-11-15T15:02:33.659Z,100370.16
2022-11-15T15:05:43.980Z,100375.38
2022-11-15T15:08:53.790Z,100373.97
2022-11-15T15:12:06.313Z,100360.72
2022-11-15T15:15:24.754Z,100372.00
2022-11-15T15:18:39.662Z,100368.87
2022-11-15T15:21:41.445Z,100366.34
2022-11-15T15:24:56.662Z,100360.28
2022-11-15T15:28:05.302Z,100350.56
2022-11-15T15:31:13.650Z,100354.09
2022-11-15T15:34:22.503Z,100357.38
2022-11-15T15:37:38.663Z,100368.44
2022-11-15T15:40:51.401Z,100373.81
2022-11-15T15:44:00.862Z,100365.63
2022-11-15T15:47:28.693Z,100369.03
2022-11-15T15:50:38.463Z,100365.63
2022-11-15T15:53:49.838Z,100362.56
2022-11-15T15:57:04.679Z,100356.47
2022-11-15T16:00:14.697Z,100357.59
2022-11-15T16:03:29.693Z,100350.72
2022-11-15T16:06:38.018Z,100350.13
2022-11-15T16:09:52.751Z,100344.78
2022-11-15T16:12:56.349Z,100346.34
2022-11-15T16:16:12.747Z,100342.09
2022-11-15T16:19:20.699Z,100350.84
2022-11-15T16:22:36.684Z,100347.75
2022-11-15T16:25:54.679Z,100352.69
2022-11-15T16:29:04.478Z,100341.41
2022-11-15T16:32:12.713Z,100343.38
2022-11-15T16:35:27.719Z,100346.19
2022-11-15T16:38:42.657Z,100339.00
2022-11-15T16:41:51.708Z,100340.41
2022-11-15T16:44:59.724Z,100341.97
2022-11-15T16:48:30.066Z,100339.31
2022-11-15T16:51:32.206Z,100330.84
2022-11-15T16:54:46.716Z,100314.91
2022-11-15T16:57:49.107Z,100324.22
2022-11-15T17:01:03.764Z,100321.25
2022-11-15T17:04:11.810Z,100317.16
2022-11-15T17:07:26.819Z,100322.09
2022-11-15T17:10:35.702Z,100316.88
2022-11-15T17:13:51.727Z,100319.28
2022-11-15T17:17:06.699Z,100318.87
2022-11-15T17:20:21.744Z,100317.88
2022-11-15T17:23:30.321Z,100314.06
2022-11-15T17:26:40.789Z,100306.72
2022-11-15T17:29:49.603Z,100306.88
2022-11-15T17:32:57.725Z,100302.94
2022-11-15T17:36:19.738Z,100300.25
2022-11-15T17:39:34.804Z,100295.72
2022-11-15T17:42:43.296Z,100292.50
2022-11-15T17:45:54.753Z,100282.62
2022-11-15T17:49:09.716Z,100280.78
2022-11-15T17:52:11.441Z,100274.75
2022-11-15T17:55:25.752Z,100270.78
2022-11-15T17:58:27.501Z,100263.87
2022-11-15T18:01:44.786Z,100260.94
2022-11-15T18:04:52.758Z,100260.81
2022-11-15T18:08:01.258Z,100255.00
2022-11-15T18:11:12.845Z,100251.06
2022-11-15T18:14:21.622Z,100262.03
2022-11-15T18:17:29.735Z,100248.25
2022-11-15T18:20:39.208Z,100245.56
2022-11-15T18:23:48.947Z,100248.94
2022-11-15T18:27:04.825Z,100247.41
2022-11-15T18:30:07.243Z,100245.59
2022-11-15T18:33:23.737Z,100248.81
2022-11-15T18:36:28.577Z,100240.78
2022-11-15T18:39:43.719Z,100233.56
2022-11-15T18:42:45.493Z,100241.88
2022-11-15T18:45:59.817Z,100237.78
2022-11-15T18:49:08.805Z,100242.72
2022-11-15T18:52:17.462Z,100236.38
2022-11-15T18:55:31.749Z,100228.75
2022-11-15T18:58:42.778Z,100229.19
2022-11-15T19:01:58.815Z,100202.47
2022-11-15T19:05:06.750Z,100224.97
2022-11-15T19:08:17.832Z,100222.56
2022-11-15T19:11:33.774Z,100217.38
2022-11-15T19:14:48.753Z,100215.12
2022-11-15T19:17:56.823Z,100208.09
2022-11-15T19:21:14.742Z,100202.31
2022-11-15T19:24:24.768Z,100196.41
2022-11-15T19:27:37.170Z,100199.75
2022-11-15T19:30:47.814Z,100196.63
2022-11-15T19:33:59.073Z,100188.47
2022-11-15T19:37:07.799Z,100185.19
2022-11-15T19:40:29.734Z,100182.81
2022-11-15T19:43:38.790Z,100183.13
2022-11-15T19:46:47.415Z,100182.28
2022-11-15T19:49:55.765Z,100183.97
2022-11-15T19:53:04.350Z,100181.72
2022-11-15T19:56:16.795Z,100181.31
2022-11-15T19:59:31.749Z,100173.53
2022-11-15T20:02:33.611Z,100169.00
2022-11-15T20:05:49.934Z,100160.72
2022-11-15T20:08:52.239Z,100156.72
2022-11-15T20:12:06.828Z,100151.22
2022-11-15T20:15:15.790Z,100145.03
2022-11-15T20:18:25.613Z,100141.34
2022-11-15T20:21:33.843Z,100136.84
2022-11-15T20:24:42.383Z,100136.56
2022-11-15T20:27:50.795Z,100131.06
2022-11-15T20:31:07.777Z,100130.38
2022-11-15T20:34:16.482Z,100129.06
2022-11-15T20:37:24.789Z,100134.47
2022-11-15T20:40:41.181Z,100134.72
2022-11-15T20:43:49.875Z,100127.22
2022-11-15T20:47:04.783Z,100122.03
2022-11-15T20:50:35.552Z,100121.59
2022-11-15T20:53:41.950Z,100112.50
2022-11-15T20:56:43.755Z,100114.56
2022-11-15T21:00:05.396Z,100111.34
2022-11-15T21:03:08.099Z,100097.50
2022-11-15T21:06:22.834Z,100115.03
2022-11-15T21:09:31.794Z,100109.22
2022-11-15T21:12:46.803Z,100110.03
2022-11-15T21:15:54.837Z,100105.78
2022-11-15T21:19:04.095Z,100086.06
2022-11-15T21:22:13.822Z,100085.06
2022-11-15T21:25:22.448Z,100086.06
2022-11-15T21:28:31.145Z,100070.28
2022-11-15T21:31:40.471Z,100073.38
2022-11-15T21:34:48.836Z,100067.28
2022-11-15T21:38:10.857Z,100069.97
2022-11-15T21:41:25.791Z,100069.12
2022-11-15T21:44:34.407Z,100063.41
2022-11-15T21:47:45.997Z,100054.22
2022-11-15T21:51:00.022Z,100055.06
2022-11-15T21:54:08.843Z,100065.22
2022-11-15T21:57:18.553Z,100060.25
2022-11-15T22:00:27.885Z,100066.31
2022-11-15T22:03:42.807Z,100055.59
2022-11-15T22:06:50.869Z,100059.41
2022-11-15T22:10:05.878Z,100056.59
2022-11-15T22:13:07.901Z,100063.78
2022-11-15T22:16:22.840Z,100054.06
2022-11-15T22:19:30.822Z,100058.41
2022-11-15T22:22:45.809Z,100054.50
2022-11-15T22:25:54.438Z,100047.84
2022-11-15T22:29:02.875Z,100035.88
2022-11-15T22:32:17.850Z,100035.00
2022-11-15T22:35:32.829Z,100027.72
2022-11-15T22:38:48.154Z,100021.91
2022-11-15T22:42:02.884Z,100018.41
2022-11-15T22:45:05.002Z,100013.87
2022-11-15T22:48:19.851Z,100009.53
2022-11-15T22:51:22.559Z,100011.75
2022-11-15T22:54:36.873Z,100008.00
2022-11-15T22:57:38.752Z,100008.00
2022-11-15T23:00:57.882Z,99997.44
2022-11-15T23:04:05.966Z,100002.38
2022-11-15T23:07:20.895Z,99982.38
2022-11-15T23:10:28.679Z,99986.16
2022-11-15T23:14:03.891Z,99981.66
2022-11-15T23:17:31.903Z,99979.81
2022-11-15T23:21:07.435Z,99987.56
2022-11-15T23:24:36.872Z,99978.53
2022-11-15T23:28:05.664Z,99972.09
2022-11-15T23:31:20.877Z,99954.66
2022-11-15T23:34:22.781Z,99965.56
2022-11-15T23:37:38.874Z,99960.69
2022-11-15T23:40:40.672Z,99953.50
2022-11-15T23:43:56.929Z,99948.28
2022-11-15T23:47:04.864Z,99949.66
2022-11-15T23:50:13.495Z,99953.19
2022-11-15T23:53:21.873Z,99943.00
2022-11-15T23:56:30.761Z,99939.47
2022-11-15T23:59:40.868Z,99936.94
